sensor_id;sensor_type;location;lat;lon;timestamp;P1;durP1;ratioP1;P2;durP2;ratioP2
58731;SDS011;44508;44.626;21.182;2023-02-11T00:01:12;45.67;;;35.17;;
58731;SDS011;44508;44.626;21.182;2023-02-11T00:03:38;47.85;;;36.47;;
58731;SDS011;44508;44.626;21.182;2023-02-11T00:06:05;47.33;;;35.92;;
58731;SDS011;44508;44.626;21.182;2023-02-11T00:08:33;52.70;;;37.17;;
58731;SDS011;44508;44.626;21.182;2023-02-11T00:11:00;49.28;;;36.40;;
58731;SDS011;44508;44.626;21.182;2023-02-11T00:13:26;48.80;;;35.55;;
58731;SDS011;44508;44.626;21.182;2023-02-11T00:15:52;46.17;;;35.45;;
58731;SDS011;44508;44.626;21.182;2023-02-11T00:18:19;46.65;;;35.20;;
58731;SDS011;44508;44.626;21.182;2023-02-11T00:20:45;44.92;;;35.08;;
58731;SDS011;44508;44.626;21.182;2023-02-11T00:23:11;47.17;;;35.80;;
58731;SDS011;44508;44.626;21.182;2023-02-11T00:25:38;46.88;;;35.35;;
58731;SDS011;44508;44.626;21.182;2023-02-11T00:28:04;45.63;;;34.70;;
58731;SDS011;44508;44.626;21.182;2023-02-11T00:30:30;46.35;;;35.13;;
58731;SDS011;44508;44.626;21.182;2023-02-11T00:32:56;44.80;;;34.35;;
58731;SDS011;44508;44.626;21.182;2023-02-11T00:35:22;47.53;;;35.80;;
58731;SDS011;44508;44.626;21.182;2023-02-11T00:37:48;43.58;;;34.78;;
58731;SDS011;44508;44.626;21.182;2023-02-11T00:40:14;44.30;;;34.80;;
58731;SDS011;44508;44.626;21.182;2023-02-11T00:42:41;43.28;;;34.13;;
58731;SDS011;44508;44.626;21.182;2023-02-11T00:45:07;43.05;;;33.75;;
58731;SDS011;44508;44.626;21.182;2023-02-11T00:47:34;43.13;;;34.13;;
58731;SDS011;44508;44.626;21.182;2023-02-11T00:50:00;44.70;;;34.83;;
58731;SDS011;44508;44.626;21.182;2023-02-11T00:52:29;44.35;;;34.60;;
58731;SDS011;44508;44.626;21.182;2023-02-11T00:54:55;42.58;;;34.38;;
58731;SDS011;44508;44.626;21.182;2023-02-11T00:57:21;44.92;;;34.35;;
58731;SDS011;44508;44.626;21.182;2023-02-11T00:59:47;42.47;;;33.53;;
58731;SDS011;44508;44.626;21.182;2023-02-11T01:02:14;44.67;;;34.38;;
58731;SDS011;44508;44.626;21.182;2023-02-11T01:04:40;42.20;;;33.33;;
58731;SDS011;44508;44.626;21.182;2023-02-11T01:07:07;45.38;;;33.88;;
58731;SDS011;44508;44.626;21.182;2023-02-11T01:09:33;45.38;;;34.40;;
58731;SDS011;44508;44.626;21.182;2023-02-11T01:11:59;42.58;;;33.45;;
58731;SDS011;44508;44.626;21.182;2023-02-11T01:14:25;45.17;;;34.65;;
58731;SDS011;44508;44.626;21.182;2023-02-11T01:16:51;47.20;;;35.45;;
58731;SDS011;44508;44.626;21.182;2023-02-11T01:19:17;42.17;;;33.55;;
58731;SDS011;44508;44.626;21.182;2023-02-11T01:21:43;44.90;;;33.90;;
58731;SDS011;44508;44.626;21.182;2023-02-11T01:24:09;42.47;;;33.25;;
58731;SDS011;44508;44.626;21.182;2023-02-11T01:26:35;43.90;;;34.05;;
58731;SDS011;44508;44.626;21.182;2023-02-11T01:29:01;42.72;;;33.28;;
58731;SDS011;44508;44.626;21.182;2023-02-11T01:31:29;40.65;;;31.70;;
58731;SDS011;44508;44.626;21.182;2023-02-11T01:33:55;40.97;;;32.17;;
58731;SDS011;44508;44.626;21.182;2023-02-11T01:36:21;43.17;;;32.85;;
58731;SDS011;44508;44.626;21.182;2023-02-11T01:38:47;42.15;;;32.97;;
58731;SDS011;44508;44.626;21.182;2023-02-11T01:41:14;38.40;;;31.67;;
58731;SDS011;44508;44.626;21.182;2023-02-11T01:43:41;42.35;;;32.75;;
58731;SDS011;44508;44.626;21.182;2023-02-11T01:48:55;40.88;;;31.98;;
58731;SDS011;44508;44.626;21.182;2023-02-11T01:51:57;40.28;;;31.80;;
58731;SDS011;44508;44.626;21.182;2023-02-11T01:54:16;40.67;;;32.47;;
58731;SDS011;44508;44.626;21.182;2023-02-11T01:57:01;39.17;;;31.60;;
58731;SDS011;44508;44.626;21.182;2023-02-11T02:02:29;40.17;;;31.77;;
58731;SDS011;44508;44.626;21.182;2023-02-11T02:04:59;38.60;;;30.67;;
58731;SDS011;44508;44.626;21.182;2023-02-11T02:07:51;40.92;;;32.45;;
58731;SDS011;44508;44.626;21.182;2023-02-11T02:10:15;40.63;;;32.08;;
58731;SDS011;44508;44.626;21.182;2023-02-11T02:12:41;38.08;;;30.90;;
58731;SDS011;44508;44.626;21.182;2023-02-11T02:15:17;39.42;;;31.10;;
58731;SDS011;44508;44.626;21.182;2023-02-11T02:17:53;38.80;;;30.98;;
58731;SDS011;44508;44.626;21.182;2023-02-11T02:23:06;42.58;;;30.20;;
58731;SDS011;44508;44.626;21.182;2023-02-11T02:25:56;42.97;;;31.48;;
58731;SDS011;44508;44.626;21.182;2023-02-11T02:31:08;39.17;;;30.00;;
58731;SDS011;44508;44.626;21.182;2023-02-11T02:33:44;40.63;;;29.98;;
58731;SDS011;44508;44.626;21.182;2023-02-11T02:36:17;41.08;;;30.73;;
58731;SDS011;44508;44.626;21.182;2023-02-11T02:41:11;37.55;;;29.42;;
58731;SDS011;44508;44.626;21.182;2023-02-11T02:43:44;37.75;;;28.90;;
58731;SDS011;44508;44.626;21.182;2023-02-11T02:46:18;38.92;;;30.08;;
58731;SDS011;44508;44.626;21.182;2023-02-11T02:48:45;35.35;;;28.63;;
58731;SDS011;44508;44.626;21.182;2023-02-11T02:59:15;34.95;;;28.33;;
58731;SDS011;44508;44.626;21.182;2023-02-11T03:04:21;36.30;;;28.05;;
58731;SDS011;44508;44.626;21.182;2023-02-11T03:09:25;33.92;;;27.50;;
58731;SDS011;44508;44.626;21.182;2023-02-11T03:11:52;38.40;;;28.00;;
58731;SDS011;44508;44.626;21.182;2023-02-11T03:14:19;34.63;;;27.27;;
58731;SDS011;44508;44.626;21.182;2023-02-11T03:16:46;36.38;;;27.63;;
58731;SDS011;44508;44.626;21.182;2023-02-11T03:19:15;35.35;;;27.23;;
58731;SDS011;44508;44.626;21.182;2023-02-11T03:21:43;33.45;;;26.92;;
58731;SDS011;44508;44.626;21.182;2023-02-11T03:24:12;34.53;;;28.10;;
58731;SDS011;44508;44.626;21.182;2023-02-11T03:26:42;34.53;;;27.13;;
58731;SDS011;44508;44.626;21.182;2023-02-11T03:29:09;32.08;;;26.42;;
58731;SDS011;44508;44.626;21.182;2023-02-11T03:31:40;34.53;;;27.38;;
58731;SDS011;44508;44.626;21.182;2023-02-11T03:34:12;36.47;;;27.48;;
58731;SDS011;44508;44.626;21.182;2023-02-11T03:39:10;33.70;;;26.98;;
58731;SDS011;44508;44.626;21.182;2023-02-11T03:41:37;34.00;;;26.23;;
58731;SDS011;44508;44.626;21.182;2023-02-11T03:44:03;32.35;;;25.83;;
58731;SDS011;44508;44.626;21.182;2023-02-11T03:46:31;33.25;;;26.27;;
58731;SDS011;44508;44.626;21.182;2023-02-11T03:49:01;36.25;;;26.77;;
58731;SDS011;44508;44.626;21.182;2023-02-11T03:51:27;32.90;;;26.00;;
58731;SDS011;44508;44.626;21.182;2023-02-11T03:53:54;32.90;;;25.60;;
58731;SDS011;44508;44.626;21.182;2023-02-11T03:56:23;32.08;;;26.23;;
58731;SDS011;44508;44.626;21.182;2023-02-11T03:58:51;40.25;;;26.08;;
58731;SDS011;44508;44.626;21.182;2023-02-11T04:01:17;32.88;;;27.10;;
58731;SDS011;44508;44.626;21.182;2023-02-11T04:03:43;33.25;;;25.33;;
58731;SDS011;44508;44.626;21.182;2023-02-11T04:06:09;34.92;;;26.85;;
58731;SDS011;44508;44.626;21.182;2023-02-11T04:08:35;30.25;;;24.25;;
58731;SDS011;44508;44.626;21.182;2023-02-11T04:11:01;31.83;;;25.20;;
58731;SDS011;44508;44.626;21.182;2023-02-11T04:13:28;31.85;;;24.92;;
58731;SDS011;44508;44.626;21.182;2023-02-11T04:15:54;31.13;;;25.10;;
58731;SDS011;44508;44.626;21.182;2023-02-11T04:18:20;30.90;;;25.92;;
58731;SDS011;44508;44.626;21.182;2023-02-11T04:20:46;32.72;;;24.90;;
58731;SDS011;44508;44.626;21.182;2023-02-11T04:23:13;32.53;;;26.20;;
58731;SDS011;44508;44.626;21.182;2023-02-11T04:25:40;31.95;;;24.42;;
58731;SDS011;44508;44.626;21.182;2023-02-11T04:28:06;32.92;;;25.42;;
58731;SDS011;44508;44.626;21.182;2023-02-11T04:30:32;33.88;;;25.48;;
58731;SDS011;44508;44.626;21.182;2023-02-11T04:32:58;31.75;;;24.67;;
58731;SDS011;44508;44.626;21.182;2023-02-11T04:35:24;32.75;;;26.13;;
58731;SDS011;44508;44.626;21.182;2023-02-11T04:37:50;29.50;;;24.52;;
58731;SDS011;44508;44.626;21.182;2023-02-11T04:40:16;30.60;;;24.83;;
58731;SDS011;44508;44.626;21.182;2023-02-11T04:42:42;31.58;;;24.45;;
58731;SDS011;44508;44.626;21.182;2023-02-11T04:45:08;32.03;;;25.23;;
58731;SDS011;44508;44.626;21.182;2023-02-11T04:47:34;30.83;;;24.30;;
58731;SDS011;44508;44.626;21.182;2023-02-11T04:50:01;30.27;;;23.40;;
58731;SDS011;44508;44.626;21.182;2023-02-11T04:52:27;30.38;;;24.05;;
58731;SDS011;44508;44.626;21.182;2023-02-11T04:54:53;29.52;;;24.02;;
58731;SDS011;44508;44.626;21.182;2023-02-11T04:57:19;30.52;;;24.90;;
58731;SDS011;44508;44.626;21.182;2023-02-11T04:59:45;27.52;;;22.23;;
58731;SDS011;44508;44.626;21.182;2023-02-11T05:02:12;31.95;;;24.75;;
58731;SDS011;44508;44.626;21.182;2023-02-11T05:04:39;29.58;;;24.45;;
58731;SDS011;44508;44.626;21.182;2023-02-11T05:07:05;28.60;;;24.20;;
58731;SDS011;44508;44.626;21.182;2023-02-11T05:09:31;30.73;;;24.30;;
58731;SDS011;44508;44.626;21.182;2023-02-11T05:11:57;28.42;;;23.38;;
58731;SDS011;44508;44.626;21.182;2023-02-11T05:14:23;29.02;;;22.95;;
58731;SDS011;44508;44.626;21.182;2023-02-11T05:16:49;30.38;;;24.92;;
58731;SDS011;44508;44.626;21.182;2023-02-11T05:19:15;28.00;;;23.30;;
58731;SDS011;44508;44.626;21.182;2023-02-11T05:21:41;30.15;;;23.63;;
58731;SDS011;44508;44.626;21.182;2023-02-11T05:24:07;31.85;;;23.58;;
58731;SDS011;44508;44.626;21.182;2023-02-11T05:26:33;31.17;;;24.02;;
58731;SDS011;44508;44.626;21.182;2023-02-11T05:28:59;29.92;;;24.02;;
58731;SDS011;44508;44.626;21.182;2023-02-11T05:31:25;30.10;;;23.30;;
58731;SDS011;44508;44.626;21.182;2023-02-11T05:33:51;28.17;;;23.08;;
58731;SDS011;44508;44.626;21.182;2023-02-11T05:36:17;27.17;;;22.25;;
58731;SDS011;44508;44.626;21.182;2023-02-11T05:38:43;28.77;;;22.83;;
58731;SDS011;44508;44.626;21.182;2023-02-11T05:41:10;28.15;;;23.02;;
58731;SDS011;44508;44.626;21.182;2023-02-11T05:43:36;28.38;;;22.85;;
58731;SDS011;44508;44.626;21.182;2023-02-11T05:46:02;28.35;;;22.08;;
58731;SDS011;44508;44.626;21.182;2023-02-11T05:48:29;27.33;;;22.55;;
58731;SDS011;44508;44.626;21.182;2023-02-11T05:50:55;27.95;;;23.05;;
58731;SDS011;44508;44.626;21.182;2023-02-11T05:53:21;28.80;;;23.77;;
58731;SDS011;44508;44.626;21.182;2023-02-11T05:55:47;30.17;;;22.77;;
58731;SDS011;44508;44.626;21.182;2023-02-11T05:58:13;26.80;;;21.77;;
58731;SDS011;44508;44.626;21.182;2023-02-11T06:00:39;31.92;;;24.17;;
58731;SDS011;44508;44.626;21.182;2023-02-11T06:03:05;27.50;;;22.10;;
58731;SDS011;44508;44.626;21.182;2023-02-11T06:05:32;30.30;;;23.35;;
58731;SDS011;44508;44.626;21.182;2023-02-11T06:07:58;26.17;;;21.65;;
58731;SDS011;44508;44.626;21.182;2023-02-11T06:10:24;28.33;;;22.67;;
58731;SDS011;44508;44.626;21.182;2023-02-11T06:12:50;27.52;;;22.13;;
58731;SDS011;44508;44.626;21.182;2023-02-11T06:15:16;28.92;;;22.67;;
58731;SDS011;44508;44.626;21.182;2023-02-11T06:17:42;30.55;;;24.20;;
58731;SDS011;44508;44.626;21.182;2023-02-11T06:20:09;28.20;;;21.58;;
58731;SDS011;44508;44.626;21.182;2023-02-11T06:22:35;28.65;;;23.27;;
58731;SDS011;44508;44.626;21.182;2023-02-11T06:25:01;29.65;;;22.98;;
58731;SDS011;44508;44.626;21.182;2023-02-11T06:27:27;28.38;;;22.30;;
58731;SDS011;44508;44.626;21.182;2023-02-11T06:29:53;26.73;;;21.88;;
58731;SDS011;44508;44.626;21.182;2023-02-11T06:32:19;26.02;;;21.70;;
58731;SDS011;44508;44.626;21.182;2023-02-11T06:34:45;29.50;;;23.17;;
58731;SDS011;44508;44.626;21.182;2023-02-11T06:37:11;29.38;;;23.42;;
58731;SDS011;44508;44.626;21.182;2023-02-11T06:39:37;29.27;;;23.65;;
58731;SDS011;44508;44.626;21.182;2023-02-11T06:42:04;27.02;;;22.55;;
58731;SDS011;44508;44.626;21.182;2023-02-11T06:44:30;27.70;;;22.45;;
58731;SDS011;44508;44.626;21.182;2023-02-11T06:46:56;28.35;;;22.52;;
58731;SDS011;44508;44.626;21.182;2023-02-11T06:49:22;28.10;;;22.27;;
58731;SDS011;44508;44.626;21.182;2023-02-11T06:51:48;29.40;;;23.98;;
58731;SDS011;44508;44.626;21.182;2023-02-11T06:54:14;26.10;;;22.83;;
58731;SDS011;44508;44.626;21.182;2023-02-11T06:56:40;28.27;;;22.83;;
58731;SDS011;44508;44.626;21.182;2023-02-11T06:59:06;28.20;;;22.65;;
58731;SDS011;44508;44.626;21.182;2023-02-11T07:01:32;28.77;;;21.88;;
58731;SDS011;44508;44.626;21.182;2023-02-11T07:03:58;28.40;;;22.30;;
58731;SDS011;44508;44.626;21.182;2023-02-11T07:06:25;27.00;;;22.13;;
58731;SDS011;44508;44.626;21.182;2023-02-11T07:08:52;28.80;;;23.63;;
58731;SDS011;44508;44.626;21.182;2023-02-11T07:11:19;28.00;;;22.20;;
58731;SDS011;44508;44.626;21.182;2023-02-11T07:13:48;27.92;;;22.73;;
58731;SDS011;44508;44.626;21.182;2023-02-11T07:16:15;28.65;;;22.85;;
58731;SDS011;44508;44.626;21.182;2023-02-11T07:18:42;28.95;;;22.83;;
58731;SDS011;44508;44.626;21.182;2023-02-11T07:21:09;27.67;;;22.52;;
58731;SDS011;44508;44.626;21.182;2023-02-11T07:23:36;27.50;;;22.15;;
58731;SDS011;44508;44.626;21.182;2023-02-11T07:26:04;29.27;;;23.08;;
58731;SDS011;44508;44.626;21.182;2023-02-11T07:28:33;27.25;;;22.77;;
58731;SDS011;44508;44.626;21.182;2023-02-11T07:31:04;28.05;;;22.45;;
58731;SDS011;44508;44.626;21.182;2023-02-11T07:33:30;27.20;;;22.63;;
58731;SDS011;44508;44.626;21.182;2023-02-11T07:35:58;29.70;;;24.35;;
58731;SDS011;44508;44.626;21.182;2023-02-11T07:38:24;29.08;;;23.70;;
58731;SDS011;44508;44.626;21.182;2023-02-11T07:40:50;29.95;;;24.00;;
58731;SDS011;44508;44.626;21.182;2023-02-11T07:43:16;29.85;;;23.17;;
58731;SDS011;44508;44.626;21.182;2023-02-11T07:45:42;30.42;;;23.55;;
58731;SDS011;44508;44.626;21.182;2023-02-11T07:48:09;28.88;;;22.40;;
58731;SDS011;44508;44.626;21.182;2023-02-11T07:50:35;26.92;;;21.92;;
58731;SDS011;44508;44.626;21.182;2023-02-11T07:53:01;29.48;;;23.90;;
58731;SDS011;44508;44.626;21.182;2023-02-11T07:55:27;27.95;;;23.45;;
58731;SDS011;44508;44.626;21.182;2023-02-11T07:57:53;28.58;;;22.83;;
58731;SDS011;44508;44.626;21.182;2023-02-11T08:00:19;27.90;;;23.15;;
58731;SDS011;44508;44.626;21.182;2023-02-11T08:02:45;28.98;;;23.10;;
58731;SDS011;44508;44.626;21.182;2023-02-11T08:05:11;30.58;;;23.95;;
58731;SDS011;44508;44.626;21.182;2023-02-11T08:07:37;27.60;;;22.58;;
58731;SDS011;44508;44.626;21.182;2023-02-11T08:10:03;28.88;;;23.75;;
58731;SDS011;44508;44.626;21.182;2023-02-11T08:12:30;28.27;;;22.25;;
58731;SDS011;44508;44.626;21.182;2023-02-11T08:14:56;28.95;;;23.13;;
58731;SDS011;44508;44.626;21.182;2023-02-11T08:17:22;29.13;;;23.25;;
58731;SDS011;44508;44.626;21.182;2023-02-11T08:19:48;26.10;;;21.85;;
58731;SDS011;44508;44.626;21.182;2023-02-11T08:22:14;28.40;;;22.73;;
58731;SDS011;44508;44.626;21.182;2023-02-11T08:24:40;27.38;;;21.88;;
58731;SDS011;44508;44.626;21.182;2023-02-11T08:27:06;27.38;;;22.60;;
58731;SDS011;44508;44.626;21.182;2023-02-11T08:29:32;28.30;;;23.05;;
58731;SDS011;44508;44.626;21.182;2023-02-11T08:31:58;30.80;;;23.30;;
58731;SDS011;44508;44.626;21.182;2023-02-11T08:34:24;29.13;;;23.25;;
58731;SDS011;44508;44.626;21.182;2023-02-11T08:36:50;30.35;;;23.70;;
58731;SDS011;44508;44.626;21.182;2023-02-11T08:39:17;29.73;;;23.10;;
58731;SDS011;44508;44.626;21.182;2023-02-11T08:41:44;31.58;;;24.35;;
58731;SDS011;44508;44.626;21.182;2023-02-11T08:44:10;30.05;;;22.77;;
58731;SDS011;44508;44.626;21.182;2023-02-11T08:46:36;28.33;;;22.73;;
58731;SDS011;44508;44.626;21.182;2023-02-11T08:49:02;28.65;;;23.17;;
58731;SDS011;44508;44.626;21.182;2023-02-11T08:51:29;32.45;;;25.33;;
58731;SDS011;44508;44.626;21.182;2023-02-11T08:53:56;30.25;;;23.48;;
58731;SDS011;44508;44.626;21.182;2023-02-11T08:56:22;30.85;;;24.67;;
58731;SDS011;44508;44.626;21.182;2023-02-11T08:58:49;30.40;;;24.60;;
58731;SDS011;44508;44.626;21.182;2023-02-11T09:01:16;32.45;;;24.88;;
58731;SDS011;44508;44.626;21.182;2023-02-11T09:03:43;34.55;;;23.85;;
58731;SDS011;44508;44.626;21.182;2023-02-11T09:06:09;31.20;;;25.10;;
58731;SDS011;44508;44.626;21.182;2023-02-11T09:08:38;33.15;;;24.63;;
58731;SDS011;44508;44.626;21.182;2023-02-11T09:11:04;29.10;;;23.30;;
58731;SDS011;44508;44.626;21.182;2023-02-11T09:13:30;31.05;;;23.55;;
58731;SDS011;44508;44.626;21.182;2023-02-11T09:15:57;31.08;;;23.48;;
58731;SDS011;44508;44.626;21.182;2023-02-11T09:18:23;29.92;;;23.80;;
58731;SDS011;44508;44.626;21.182;2023-02-11T09:20:50;31.38;;;23.33;;
58731;SDS011;44508;44.626;21.182;2023-02-11T09:23:16;29.75;;;23.80;;
58731;SDS011;44508;44.626;21.182;2023-02-11T09:25:42;29.23;;;23.25;;
58731;SDS011;44508;44.626;21.182;2023-02-11T09:28:08;30.20;;;22.65;;
58731;SDS011;44508;44.626;21.182;2023-02-11T09:30:37;29.25;;;22.73;;
58731;SDS011;44508;44.626;21.182;2023-02-11T09:33:03;32.97;;;23.65;;
58731;SDS011;44508;44.626;21.182;2023-02-11T09:35:29;31.10;;;23.00;;
58731;SDS011;44508;44.626;21.182;2023-02-11T09:37:55;29.80;;;22.73;;
58731;SDS011;44508;44.626;21.182;2023-02-11T09:40:21;27.85;;;22.33;;
58731;SDS011;44508;44.626;21.182;2023-02-11T09:43:04;32.20;;;23.85;;
58731;SDS011;44508;44.626;21.182;2023-02-11T09:45:30;28.77;;;22.75;;
58731;SDS011;44508;44.626;21.182;2023-02-11T09:50:30;28.27;;;22.23;;
58731;SDS011;44508;44.626;21.182;2023-02-11T09:53:05;31.30;;;23.65;;
58731;SDS011;44508;44.626;21.182;2023-02-11T09:55:41;30.55;;;22.92;;
58731;SDS011;44508;44.626;21.182;2023-02-11T10:24:23;23.92;;;20.00;;
58731;SDS011;44508;44.626;21.182;2023-02-11T10:26:50;26.33;;;20.90;;
58731;SDS011;44508;44.626;21.182;2023-02-11T10:31:45;28.42;;;20.95;;
58731;SDS011;44508;44.626;21.182;2023-02-11T10:34:12;25.05;;;20.23;;
58731;SDS011;44508;44.626;21.182;2023-02-11T10:36:40;27.75;;;20.80;;
58731;SDS011;44508;44.626;21.182;2023-02-11T10:39:13;25.98;;;20.25;;
58731;SDS011;44508;44.626;21.182;2023-02-11T10:44:17;25.25;;;20.40;;
58731;SDS011;44508;44.626;21.182;2023-02-11T10:46:44;26.30;;;20.10;;
58731;SDS011;44508;44.626;21.182;2023-02-11T10:49:10;24.33;;;19.70;;
58731;SDS011;44508;44.626;21.182;2023-02-11T10:52:10;23.83;;;18.75;;
58731;SDS011;44508;44.626;21.182;2023-02-11T10:54:37;22.77;;;18.73;;
58731;SDS011;44508;44.626;21.182;2023-02-11T10:57:03;26.13;;;19.80;;
58731;SDS011;44508;44.626;21.182;2023-02-11T10:59:30;24.95;;;19.70;;
58731;SDS011;44508;44.626;21.182;2023-02-11T11:02:01;24.90;;;20.10;;
58731;SDS011;44508;44.626;21.182;2023-02-11T11:07:01;23.50;;;19.33;;
58731;SDS011;44508;44.626;21.182;2023-02-11T11:09:42;24.60;;;18.52;;
58731;SDS011;44508;44.626;21.182;2023-02-11T11:14:54;26.70;;;19.05;;
58731;SDS011;44508;44.626;21.182;2023-02-11T11:17:21;25.63;;;18.83;;
58731;SDS011;44508;44.626;21.182;2023-02-11T11:19:47;24.08;;;18.00;;
58731;SDS011;44508;44.626;21.182;2023-02-11T11:22:20;31.17;;;17.92;;
58731;SDS011;44508;44.626;21.182;2023-02-11T11:24:46;31.02;;;18.52;;
58731;SDS011;44508;44.626;21.182;2023-02-11T11:27:19;29.13;;;17.77;;
58731;SDS011;44508;44.626;21.182;2023-02-11T11:29:50;29.52;;;18.55;;
58731;SDS011;44508;44.626;21.182;2023-02-11T11:32:22;37.17;;;18.35;;
58731;SDS011;44508;44.626;21.182;2023-02-11T11:34:50;31.15;;;17.77;;
58731;SDS011;44508;44.626;21.182;2023-02-11T11:40:07;28.73;;;17.48;;
58731;SDS011;44508;44.626;21.182;2023-02-11T11:42:34;36.25;;;19.08;;
58731;SDS011;44508;44.626;21.182;2023-02-11T11:47:35;28.60;;;18.27;;
58731;SDS011;44508;44.626;21.182;2023-02-11T11:55:20;24.08;;;17.30;;
58731;SDS011;44508;44.626;21.182;2023-02-11T11:57:47;28.25;;;18.45;;
58731;SDS011;44508;44.626;21.182;2023-02-11T12:00:14;29.27;;;18.98;;
58731;SDS011;44508;44.626;21.182;2023-02-11T12:05:19;22.90;;;18.50;;
58731;SDS011;44508;44.626;21.182;2023-02-11T12:10:49;23.50;;;17.80;;
58731;SDS011;44508;44.626;21.182;2023-02-11T12:26:14;27.20;;;17.90;;
58731;SDS011;44508;44.626;21.182;2023-02-11T12:41:48;23.83;;;18.35;;
58731;SDS011;44508;44.626;21.182;2023-02-11T12:45:37;26.75;;;18.02;;
58731;SDS011;44508;44.626;21.182;2023-02-11T12:55:29;25.42;;;18.42;;
58731;SDS011;44508;44.626;21.182;2023-02-11T12:57:55;26.75;;;18.65;;
58731;SDS011;44508;44.626;21.182;2023-02-11T13:05:56;27.67;;;17.95;;
58731;SDS011;44508;44.626;21.182;2023-02-11T13:10:51;28.98;;;19.33;;
58731;SDS011;44508;44.626;21.182;2023-02-11T13:13:32;24.65;;;18.55;;
58731;SDS011;44508;44.626;21.182;2023-02-11T13:26:26;26.17;;;17.95;;
58731;SDS011;44508;44.626;21.182;2023-02-11T13:31:21;28.65;;;19.25;;
58731;SDS011;44508;44.626;21.182;2023-02-11T13:33:50;28.15;;;19.63;;
58731;SDS011;44508;44.626;21.182;2023-02-11T13:38:56;31.63;;;19.33;;
58731;SDS011;44508;44.626;21.182;2023-02-11T13:41:28;27.48;;;18.17;;
58731;SDS011;44508;44.626;21.182;2023-02-11T13:49:42;25.48;;;18.67;;
58731;SDS011;44508;44.626;21.182;2023-02-11T13:54:49;26.92;;;17.63;;
58731;SDS011;44508;44.626;21.182;2023-02-11T14:02:30;28.50;;;17.92;;
58731;SDS011;44508;44.626;21.182;2023-02-11T14:05:26;26.60;;;17.90;;
58731;SDS011;44508;44.626;21.182;2023-02-11T14:16:07;20.60;;;16.65;;
58731;SDS011;44508;44.626;21.182;2023-02-11T14:23:38;23.65;;;16.85;;
58731;SDS011;44508;44.626;21.182;2023-02-11T14:31:20;21.30;;;16.25;;
58731;SDS011;44508;44.626;21.182;2023-02-11T14:36:35;21.10;;;16.15;;
58731;SDS011;44508;44.626;21.182;2023-02-11T14:39:12;19.92;;;15.63;;
58731;SDS011;44508;44.626;21.182;2023-02-11T14:41:42;22.58;;;15.40;;
58731;SDS011;44508;44.626;21.182;2023-02-11T14:44:28;24.25;;;16.27;;
58731;SDS011;44508;44.626;21.182;2023-02-11T14:46:55;20.02;;;16.10;;
58731;SDS011;44508;44.626;21.182;2023-02-11T14:51:49;22.02;;;15.52;;
58731;SDS011;44508;44.626;21.182;2023-02-11T14:54:16;22.95;;;16.17;;
58731;SDS011;44508;44.626;21.182;2023-02-11T14:56:44;19.48;;;15.15;;
58731;SDS011;44508;44.626;21.182;2023-02-11T14:59:17;19.98;;;15.90;;
58731;SDS011;44508;44.626;21.182;2023-02-11T15:01:50;22.48;;;16.55;;
58731;SDS011;44508;44.626;21.182;2023-02-11T15:04:22;19.20;;;15.50;;
58731;SDS011;44508;44.626;21.182;2023-02-11T15:06:48;20.48;;;15.88;;
58731;SDS011;44508;44.626;21.182;2023-02-11T15:09:16;22.98;;;16.63;;
58731;SDS011;44508;44.626;21.182;2023-02-11T15:11:43;20.80;;;16.50;;
58731;SDS011;44508;44.626;21.182;2023-02-11T15:14:16;22.90;;;16.67;;
58731;SDS011;44508;44.626;21.182;2023-02-11T15:16:44;23.25;;;16.33;;
58731;SDS011;44508;44.626;21.182;2023-02-11T15:21:55;25.98;;;16.27;;
58731;SDS011;44508;44.626;21.182;2023-02-11T15:24:28;20.27;;;15.43;;
58731;SDS011;44508;44.626;21.182;2023-02-11T15:26:56;19.65;;;16.58;;
58731;SDS011;44508;44.626;21.182;2023-02-11T15:29:25;20.60;;;15.80;;
58731;SDS011;44508;44.626;21.182;2023-02-11T15:32:05;26.15;;;15.98;;
58731;SDS011;44508;44.626;21.182;2023-02-11T15:34:32;23.27;;;15.57;;
58731;SDS011;44508;44.626;21.182;2023-02-11T15:36:58;28.48;;;15.50;;
58731;SDS011;44508;44.626;21.182;2023-02-11T15:41:55;28.40;;;15.23;;
58731;SDS011;44508;44.626;21.182;2023-02-11T15:44:28;25.00;;;15.70;;
58731;SDS011;44508;44.626;21.182;2023-02-11T15:46:54;24.98;;;16.45;;
58731;SDS011;44508;44.626;21.182;2023-02-11T15:49:20;26.50;;;16.95;;
58731;SDS011;44508;44.626;21.182;2023-02-11T15:51:47;23.50;;;16.85;;
58731;SDS011;44508;44.626;21.182;2023-02-11T15:54:18;26.40;;;17.35;;
58731;SDS011;44508;44.626;21.182;2023-02-11T15:56:46;23.60;;;17.60;;
58731;SDS011;44508;44.626;21.182;2023-02-11T15:59:21;26.65;;;18.23;;
58731;SDS011;44508;44.626;21.182;2023-02-11T16:01:50;24.58;;;18.27;;
58731;SDS011;44508;44.626;21.182;2023-02-11T16:04:20;25.58;;;17.75;;
58731;SDS011;44508;44.626;21.182;2023-02-11T16:06:47;24.70;;;17.67;;
58731;SDS011;44508;44.626;21.182;2023-02-11T16:14:26;23.70;;;18.65;;
58731;SDS011;44508;44.626;21.182;2023-02-11T16:17:02;24.15;;;18.48;;
58731;SDS011;44508;44.626;21.182;2023-02-11T16:19:30;27.83;;;18.02;;
58731;SDS011;44508;44.626;21.182;2023-02-11T16:21:57;24.08;;;18.10;;
58731;SDS011;44508;44.626;21.182;2023-02-11T16:24:25;28.00;;;19.42;;
58731;SDS011;44508;44.626;21.182;2023-02-11T16:26:56;24.08;;;19.05;;
58731;SDS011;44508;44.626;21.182;2023-02-11T16:29:24;25.15;;;19.58;;
58731;SDS011;44508;44.626;21.182;2023-02-11T16:31:51;25.33;;;18.98;;
58731;SDS011;44508;44.626;21.182;2023-02-11T16:34:18;26.10;;;19.45;;
58731;SDS011;44508;44.626;21.182;2023-02-11T16:36:45;24.55;;;19.30;;
58731;SDS011;44508;44.626;21.182;2023-02-11T16:39:12;25.45;;;19.55;;
58731;SDS011;44508;44.626;21.182;2023-02-11T16:41:38;25.35;;;20.50;;
58731;SDS011;44508;44.626;21.182;2023-02-11T16:44:04;29.70;;;21.30;;
58731;SDS011;44508;44.626;21.182;2023-02-11T16:46:31;28.55;;;21.20;;
58731;SDS011;44508;44.626;21.182;2023-02-11T16:48:57;27.63;;;22.27;;
58731;SDS011;44508;44.626;21.182;2023-02-11T16:51:25;27.75;;;21.40;;
58731;SDS011;44508;44.626;21.182;2023-02-11T16:53:51;31.20;;;23.42;;
58731;SDS011;44508;44.626;21.182;2023-02-11T16:56:17;30.45;;;22.40;;
58731;SDS011;44508;44.626;21.182;2023-02-11T16:58:43;29.05;;;22.55;;
58731;SDS011;44508;44.626;21.182;2023-02-11T17:01:09;34.65;;;23.83;;
58731;SDS011;44508;44.626;21.182;2023-02-11T17:03:36;31.65;;;24.05;;
58731;SDS011;44508;44.626;21.182;2023-02-11T17:06:05;32.97;;;24.35;;
58731;SDS011;44508;44.626;21.182;2023-02-11T17:08:31;34.15;;;25.17;;
58731;SDS011;44508;44.626;21.182;2023-02-11T17:10:58;32.15;;;24.80;;
58731;SDS011;44508;44.626;21.182;2023-02-11T17:13:24;37.90;;;26.63;;
58731;SDS011;44508;44.626;21.182;2023-02-11T17:15:50;36.00;;;26.85;;
58731;SDS011;44508;44.626;21.182;2023-02-11T17:18:16;35.22;;;27.77;;
58731;SDS011;44508;44.626;21.182;2023-02-11T17:20:42;38.08;;;28.85;;
58731;SDS011;44508;44.626;21.182;2023-02-11T17:23:08;40.92;;;29.33;;